クアラルンプール の空港の天気 - METARとTAF

クアラルンプール国際空港 ( WMKK / KUL ) - マレーシア スランゴール州セパン
飛行場実況気象(Metar)
観測時間08/05 09:30 MYT (08/05 01:30 UTC)
風向・風速南東 2m/s
視程10km以上
天気現象
少しの雲 雲底高度 550m
気温28℃
湿度84%
気圧1008hPa
METARWMKK 050130Z 14004KT 080V250 9999 FEW018 28/25 Q1008 NOSIG
過去の天気等 Google飛行場航空写真 Wunderground天気予報

過去48時間のMETAR

飛行場予報(TAF)
発表時間: 8/05 07:00 MYT (8/04 23:00 UTC)
予報対象時間: 5日8時 MYT ~ 6日14時 MYT
風向・風速南南東 3m/s
視程10km以上
少しの雲 雲底高度 550m
TAF WMKK 042300Z 0500/0606 16006KT 9999 FEW018